sensor_id;sensor_type;location;lat;lon;timestamp;temperature;humidity
15564;DHT22;7883;52.554;13.364;2023-09-12T00:01:10;21.30;99.90
15564;DHT22;7883;52.554;13.364;2023-09-12T00:03:37;21.30;99.90
15564;DHT22;7883;52.554;13.364;2023-09-12T00:06:04;21.20;99.90
15564;DHT22;7883;52.554;13.364;2023-09-12T00:08:32;21.30;99.90
15564;DHT22;7883;52.554;13.364;2023-09-12T00:11:04;21.30;99.90
15564;DHT22;7883;52.554;13.364;2023-09-12T00:13:33;21.30;99.90
15564;DHT22;7883;52.554;13.364;2023-09-12T00:16:02;21.30;99.90
15564;DHT22;7883;52.554;13.364;2023-09-12T00:18:30;21.30;99.90
15564;DHT22;7883;52.554;13.364;2023-09-12T00:21:00;21.30;99.90
15564;DHT22;7883;52.554;13.364;2023-09-12T00:23:27;21.30;99.90
15564;DHT22;7883;52.554;13.364;2023-09-12T00:25:54;21.30;99.90
15564;DHT22;7883;52.554;13.364;2023-09-12T00:28:22;21.20;99.90
15564;DHT22;7883;52.554;13.364;2023-09-12T00:30:51;21.20;99.90
15564;DHT22;7883;52.554;13.364;2023-09-12T00:33:18;21.10;99.90
15564;DHT22;7883;52.554;13.364;2023-09-12T00:35:45;21.10;99.90
15564;DHT22;7883;52.554;13.364;2023-09-12T00:38:12;21.10;99.90
15564;DHT22;7883;52.554;13.364;2023-09-12T00:40:39;21.10;99.90
15564;DHT22;7883;52.554;13.364;2023-09-12T00:43:06;21.10;99.90
15564;DHT22;7883;52.554;13.364;2023-09-12T00:45:33;21.10;99.90
15564;DHT22;7883;52.554;13.364;2023-09-12T00:48:03;21.10;99.90
15564;DHT22;7883;52.554;13.364;2023-09-12T00:50:31;21.10;99.90
15564;DHT22;7883;52.554;13.364;2023-09-12T00:52:59;21.10;99.90
15564;DHT22;7883;52.554;13.364;2023-09-12T00:55:28;21.00;99.90
15564;DHT22;7883;52.554;13.364;2023-09-12T00:57:55;21.00;99.90
15564;DHT22;7883;52.554;13.364;2023-09-12T01:00:22;20.90;99.90
15564;DHT22;7883;52.554;13.364;2023-09-12T01:02:49;20.90;99.90
15564;DHT22;7883;52.554;13.364;2023-09-12T01:05:22;20.90;99.90
15564;DHT22;7883;52.554;13.364;2023-09-12T01:07:49;21.00;99.90
15564;DHT22;7883;52.554;13.364;2023-09-12T01:10:17;21.00;99.90
15564;DHT22;7883;52.554;13.364;2023-09-12T01:12:44;21.00;99.90
15564;DHT22;7883;52.554;13.364;2023-09-12T01:15:11;21.00;99.90
15564;DHT22;7883;52.554;13.364;2023-09-12T01:17:41;21.00;99.90
15564;DHT22;7883;52.554;13.364;2023-09-12T01:20:13;21.00;99.90
15564;DHT22;7883;52.554;13.364;2023-09-12T01:22:56;21.00;99.90
15564;DHT22;7883;52.554;13.364;2023-09-12T01:25:41;20.90;99.90
15564;DHT22;7883;52.554;13.364;2023-09-12T01:28:12;20.90;99.90
15564;DHT22;7883;52.554;13.364;2023-09-12T01:30:42;20.90;99.90
15564;DHT22;7883;52.554;13.364;2023-09-12T01:33:11;20.90;99.90
15564;DHT22;7883;52.554;13.364;2023-09-12T01:35:38;20.90;99.90
15564;DHT22;7883;52.554;13.364;2023-09-12T01:38:05;20.90;99.90
15564;DHT22;7883;52.554;13.364;2023-09-12T01:40:36;20.80;99.90
15564;DHT22;7883;52.554;13.364;2023-09-12T01:43:06;20.80;99.90
15564;DHT22;7883;52.554;13.364;2023-09-12T01:45:35;20.80;99.90
15564;DHT22;7883;52.554;13.364;2023-09-12T01:48:04;20.70;99.90
15564;DHT22;7883;52.554;13.364;2023-09-12T01:50:33;20.70;99.90
15564;DHT22;7883;52.554;13.364;2023-09-12T01:53:00;20.60;99.90
15564;DHT22;7883;52.554;13.364;2023-09-12T01:55:27;20.60;99.90
15564;DHT22;7883;52.554;13.364;2023-09-12T01:57:54;20.60;99.90
15564;DHT22;7883;52.554;13.364;2023-09-12T02:00:22;20.60;99.90
15564;DHT22;7883;52.554;13.364;2023-09-12T02:02:50;20.60;99.90
15564;DHT22;7883;52.554;13.364;2023-09-12T02:05:21;20.50;99.90
15564;DHT22;7883;52.554;13.364;2023-09-12T02:07:50;20.50;99.90
15564;DHT22;7883;52.554;13.364;2023-09-12T02:10:17;20.60;99.90
15564;DHT22;7883;52.554;13.364;2023-09-12T02:12:44;20.60;99.90
15564;DHT22;7883;52.554;13.364;2023-09-12T02:15:10;20.50;99.90
15564;DHT22;7883;52.554;13.364;2023-09-12T02:17:38;20.50;99.90
15564;DHT22;7883;52.554;13.364;2023-09-12T02:20:08;20.50;99.90
15564;DHT22;7883;52.554;13.364;2023-09-12T02:22:35;20.50;99.90
15564;DHT22;7883;52.554;13.364;2023-09-12T02:25:02;20.50;99.90
15564;DHT22;7883;52.554;13.364;2023-09-12T02:27:30;20.50;99.90
15564;DHT22;7883;52.554;13.364;2023-09-12T02:29:57;20.40;99.90
15564;DHT22;7883;52.554;13.364;2023-09-12T02:32:24;20.40;99.90
15564;DHT22;7883;52.554;13.364;2023-09-12T02:34:51;20.20;99.90
15564;DHT22;7883;52.554;13.364;2023-09-12T02:37:20;20.10;99.90
15564;DHT22;7883;52.554;13.364;2023-09-12T02:39:47;20.20;99.90
15564;DHT22;7883;52.554;13.364;2023-09-12T02:42:14;20.30;99.90
15564;DHT22;7883;52.554;13.364;2023-09-12T02:44:41;20.40;99.90
15564;DHT22;7883;52.554;13.364;2023-09-12T02:47:08;20.40;99.90
15564;DHT22;7883;52.554;13.364;2023-09-12T02:49:35;20.30;99.90
15564;DHT22;7883;52.554;13.364;2023-09-12T02:52:02;20.20;99.90
15564;DHT22;7883;52.554;13.364;2023-09-12T02:54:30;20.30;99.90
15564;DHT22;7883;52.554;13.364;2023-09-12T02:56:57;20.40;99.90
15564;DHT22;7883;52.554;13.364;2023-09-12T02:59:24;20.40;99.90
15564;DHT22;7883;52.554;13.364;2023-09-12T03:01:51;20.40;99.90
15564;DHT22;7883;52.554;13.364;2023-09-12T03:04:18;20.40;99.90
15564;DHT22;7883;52.554;13.364;2023-09-12T03:06:45;20.40;99.90
15564;DHT22;7883;52.554;13.364;2023-09-12T03:09:13;20.30;99.90
15564;DHT22;7883;52.554;13.364;2023-09-12T03:11:45;20.40;99.90
15564;DHT22;7883;52.554;13.364;2023-09-12T03:14:12;20.30;99.90
15564;DHT22;7883;52.554;13.364;2023-09-12T03:16:39;20.30;99.90
15564;DHT22;7883;52.554;13.364;2023-09-12T03:19:06;20.30;99.90
15564;DHT22;7883;52.554;13.364;2023-09-12T03:21:33;20.30;99.90
15564;DHT22;7883;52.554;13.364;2023-09-12T03:24:00;20.30;99.90
15564;DHT22;7883;52.554;13.364;2023-09-12T03:26:27;20.30;99.90
15564;DHT22;7883;52.554;13.364;2023-09-12T03:28:55;20.30;99.90
15564;DHT22;7883;52.554;13.364;2023-09-12T03:31:22;20.20;99.90
15564;DHT22;7883;52.554;13.364;2023-09-12T03:33:49;20.10;99.90
15564;DHT22;7883;52.554;13.364;2023-09-12T03:36:16;20.10;99.90
15564;DHT22;7883;52.554;13.364;2023-09-12T03:38:43;20.10;99.90
15564;DHT22;7883;52.554;13.364;2023-09-12T03:41:10;20.00;99.90
15564;DHT22;7883;52.554;13.364;2023-09-12T03:43:37;20.00;99.90
15564;DHT22;7883;52.554;13.364;2023-09-12T03:46:06;19.90;99.90
15564;DHT22;7883;52.554;13.364;2023-09-12T03:48:33;19.90;99.90
15564;DHT22;7883;52.554;13.364;2023-09-12T03:51:02;19.90;99.90
15564;DHT22;7883;52.554;13.364;2023-09-12T03:53:29;19.90;99.90
15564;DHT22;7883;52.554;13.364;2023-09-12T03:55:57;19.90;99.90
15564;DHT22;7883;52.554;13.364;2023-09-12T03:58:25;19.90;99.90
15564;DHT22;7883;52.554;13.364;2023-09-12T04:00:52;19.90;99.90
15564;DHT22;7883;52.554;13.364;2023-09-12T04:03:20;20.00;99.90
15564;DHT22;7883;52.554;13.364;2023-09-12T04:05:47;19.90;99.90
15564;DHT22;7883;52.554;13.364;2023-09-12T04:08:14;19.90;99.90
15564;DHT22;7883;52.554;13.364;2023-09-12T04:10:41;19.90;99.90
15564;DHT22;7883;52.554;13.364;2023-09-12T04:13:10;19.80;99.90
15564;DHT22;7883;52.554;13.364;2023-09-12T04:15:37;19.80;99.90
15564;DHT22;7883;52.554;13.364;2023-09-12T04:18:05;19.80;99.90
15564;DHT22;7883;52.554;13.364;2023-09-12T04:20:33;19.70;99.90
15564;DHT22;7883;52.554;13.364;2023-09-12T04:23:01;19.60;99.90
15564;DHT22;7883;52.554;13.364;2023-09-12T04:25:29;19.50;99.90
15564;DHT22;7883;52.554;13.364;2023-09-12T04:27:56;19.50;99.90
15564;DHT22;7883;52.554;13.364;2023-09-12T04:30:23;19.50;99.90
15564;DHT22;7883;52.554;13.364;2023-09-12T04:32:50;19.60;99.90
15564;DHT22;7883;52.554;13.364;2023-09-12T04:35:17;19.70;99.90
15564;DHT22;7883;52.554;13.364;2023-09-12T04:37:46;19.80;99.90
15564;DHT22;7883;52.554;13.364;2023-09-12T04:40:13;19.80;99.90
15564;DHT22;7883;52.554;13.364;2023-09-12T04:42:40;19.80;99.90
15564;DHT22;7883;52.554;13.364;2023-09-12T04:45:07;19.80;99.90
15564;DHT22;7883;52.554;13.364;2023-09-12T04:47:34;19.80;99.90
15564;DHT22;7883;52.554;13.364;2023-09-12T04:50:01;19.80;99.90
15564;DHT22;7883;52.554;13.364;2023-09-12T04:52:28;19.90;99.90
15564;DHT22;7883;52.554;13.364;2023-09-12T04:54:56;19.90;99.90
15564;DHT22;7883;52.554;13.364;2023-09-12T04:57:23;20.00;99.90
15564;DHT22;7883;52.554;13.364;2023-09-12T04:59:51;20.00;99.90
15564;DHT22;7883;52.554;13.364;2023-09-12T05:02:18;20.00;99.90
15564;DHT22;7883;52.554;13.364;2023-09-12T05:04:45;20.30;99.90
15564;DHT22;7883;52.554;13.364;2023-09-12T05:07:15;20.50;99.90
15564;DHT22;7883;52.554;13.364;2023-09-12T05:09:42;20.90;99.90
15564;DHT22;7883;52.554;13.364;2023-09-12T05:12:10;20.90;99.90
15564;DHT22;7883;52.554;13.364;2023-09-12T05:14:38;20.80;99.90
15564;DHT22;7883;52.554;13.364;2023-09-12T05:17:05;20.70;99.90
15564;DHT22;7883;52.554;13.364;2023-09-12T05:19:31;20.60;99.90
15564;DHT22;7883;52.554;13.364;2023-09-12T05:21:58;20.60;99.90
15564;DHT22;7883;52.554;13.364;2023-09-12T05:24:25;20.60;99.90
15564;DHT22;7883;52.554;13.364;2023-09-12T05:26:52;20.60;99.90
15564;DHT22;7883;52.554;13.364;2023-09-12T05:29:20;20.60;99.90
15564;DHT22;7883;52.554;13.364;2023-09-12T05:31:47;20.70;99.90
15564;DHT22;7883;52.554;13.364;2023-09-12T05:34:14;20.70;99.90
15564;DHT22;7883;52.554;13.364;2023-09-12T05:36:42;20.80;99.90
15564;DHT22;7883;52.554;13.364;2023-09-12T05:39:09;20.80;99.90
15564;DHT22;7883;52.554;13.364;2023-09-12T05:41:36;20.80;99.90
15564;DHT22;7883;52.554;13.364;2023-09-12T05:44:03;20.90;99.90
15564;DHT22;7883;52.554;13.364;2023-09-12T05:46:31;20.90;99.90
15564;DHT22;7883;52.554;13.364;2023-09-12T05:48:58;21.00;99.90
15564;DHT22;7883;52.554;13.364;2023-09-12T05:51:25;21.00;99.90
15564;DHT22;7883;52.554;13.364;2023-09-12T05:53:52;21.00;99.90
15564;DHT22;7883;52.554;13.364;2023-09-12T05:56:19;21.00;99.90
15564;DHT22;7883;52.554;13.364;2023-09-12T05:58:46;21.10;99.90
15564;DHT22;7883;52.554;13.364;2023-09-12T06:01:15;21.20;99.90
15564;DHT22;7883;52.554;13.364;2023-09-12T06:03:46;21.20;99.90
15564;DHT22;7883;52.554;13.364;2023-09-12T06:06:14;21.30;99.90
15564;DHT22;7883;52.554;13.364;2023-09-12T06:08:40;21.40;99.90
15564;DHT22;7883;52.554;13.364;2023-09-12T06:11:07;21.40;99.90
15564;DHT22;7883;52.554;13.364;2023-09-12T06:13:34;21.50;99.90
15564;DHT22;7883;52.554;13.364;2023-09-12T06:16:03;21.60;99.90
15564;DHT22;7883;52.554;13.364;2023-09-12T06:18:31;21.70;99.90
15564;DHT22;7883;52.554;13.364;2023-09-12T06:20:59;21.70;99.90
15564;DHT22;7883;52.554;13.364;2023-09-12T06:23:28;21.70;99.90
15564;DHT22;7883;52.554;13.364;2023-09-12T06:25:55;21.80;99.90
15564;DHT22;7883;52.554;13.364;2023-09-12T06:28:25;21.90;99.90
15564;DHT22;7883;52.554;13.364;2023-09-12T06:30:52;21.90;99.90
15564;DHT22;7883;52.554;13.364;2023-09-12T06:33:19;22.00;99.90
15564;DHT22;7883;52.554;13.364;2023-09-12T06:35:48;22.00;99.90
15564;DHT22;7883;52.554;13.364;2023-09-12T06:38:17;22.00;99.90
15564;DHT22;7883;52.554;13.364;2023-09-12T06:40:47;22.10;99.90
15564;DHT22;7883;52.554;13.364;2023-09-12T06:43:14;22.20;99.90
15564;DHT22;7883;52.554;13.364;2023-09-12T06:45:41;22.20;99.90
15564;DHT22;7883;52.554;13.364;2023-09-12T06:48:08;22.20;99.90
15564;DHT22;7883;52.554;13.364;2023-09-12T06:50:35;22.20;99.90
15564;DHT22;7883;52.554;13.364;2023-09-12T06:53:04;22.30;99.90
15564;DHT22;7883;52.554;13.364;2023-09-12T06:55:33;22.30;99.90
15564;DHT22;7883;52.554;13.364;2023-09-12T06:58:00;22.30;99.90
15564;DHT22;7883;52.554;13.364;2023-09-12T07:00:27;22.40;99.90
15564;DHT22;7883;52.554;13.364;2023-09-12T07:02:54;22.40;99.90
15564;DHT22;7883;52.554;13.364;2023-09-12T07:05:23;22.40;99.90
15564;DHT22;7883;52.554;13.364;2023-09-12T07:07:49;22.50;99.90
15564;DHT22;7883;52.554;13.364;2023-09-12T07:10:17;22.50;99.90
15564;DHT22;7883;52.554;13.364;2023-09-12T07:12:46;22.60;99.90
15564;DHT22;7883;52.554;13.364;2023-09-12T07:15:13;22.60;99.90
15564;DHT22;7883;52.554;13.364;2023-09-12T07:17:40;22.60;99.90
15564;DHT22;7883;52.554;13.364;2023-09-12T07:20:08;22.70;99.90
15564;DHT22;7883;52.554;13.364;2023-09-12T07:22:37;22.70;99.90
15564;DHT22;7883;52.554;13.364;2023-09-12T07:25:05;22.80;99.90
15564;DHT22;7883;52.554;13.364;2023-09-12T07:27:33;22.80;99.90
15564;DHT22;7883;52.554;13.364;2023-09-12T07:30:01;22.90;99.90
15564;DHT22;7883;52.554;13.364;2023-09-12T07:32:28;22.90;99.90
15564;DHT22;7883;52.554;13.364;2023-09-12T07:34:55;22.90;99.90
15564;DHT22;7883;52.554;13.364;2023-09-12T07:37:22;23.00;99.90
15564;DHT22;7883;52.554;13.364;2023-09-12T07:39:49;23.00;99.90
15564;DHT22;7883;52.554;13.364;2023-09-12T07:42:16;23.10;99.90
15564;DHT22;7883;52.554;13.364;2023-09-12T07:44:47;23.10;99.90
15564;DHT22;7883;52.554;13.364;2023-09-12T07:47:15;23.20;99.90
15564;DHT22;7883;52.554;13.364;2023-09-12T07:49:42;23.30;99.90
15564;DHT22;7883;52.554;13.364;2023-09-12T07:52:09;23.40;99.90
15564;DHT22;7883;52.554;13.364;2023-09-12T07:54:36;23.40;99.90
15564;DHT22;7883;52.554;13.364;2023-09-12T07:57:04;23.50;99.90
15564;DHT22;7883;52.554;13.364;2023-09-12T07:59:33;23.60;99.90
15564;DHT22;7883;52.554;13.364;2023-09-12T08:02:01;23.70;99.90
15564;DHT22;7883;52.554;13.364;2023-09-12T08:04:29;23.70;99.90
15564;DHT22;7883;52.554;13.364;2023-09-12T08:06:56;23.80;99.90
15564;DHT22;7883;52.554;13.364;2023-09-12T08:09:23;23.80;99.90
15564;DHT22;7883;52.554;13.364;2023-09-12T08:11:50;23.80;99.90
15564;DHT22;7883;52.554;13.364;2023-09-12T08:14:17;23.90;99.90
15564;DHT22;7883;52.554;13.364;2023-09-12T08:16:47;24.00;99.90
15564;DHT22;7883;52.554;13.364;2023-09-12T08:19:14;24.00;99.90
15564;DHT22;7883;52.554;13.364;2023-09-12T08:21:43;24.10;99.90
15564;DHT22;7883;52.554;13.364;2023-09-12T08:24:11;24.10;99.90
15564;DHT22;7883;52.554;13.364;2023-09-12T08:26:38;24.20;99.90
15564;DHT22;7883;52.554;13.364;2023-09-12T08:29:05;24.20;99.90
15564;DHT22;7883;52.554;13.364;2023-09-12T08:31:32;24.30;99.90
15564;DHT22;7883;52.554;13.364;2023-09-12T08:33:59;24.30;99.90
15564;DHT22;7883;52.554;13.364;2023-09-12T08:36:26;24.40;99.90
15564;DHT22;7883;52.554;13.364;2023-09-12T08:38:54;24.40;99.90
15564;DHT22;7883;52.554;13.364;2023-09-12T08:41:21;24.50;99.90
15564;DHT22;7883;52.554;13.364;2023-09-12T08:43:48;24.60;99.90
15564;DHT22;7883;52.554;13.364;2023-09-12T08:46:16;24.70;99.90
15564;DHT22;7883;52.554;13.364;2023-09-12T08:48:45;24.70;99.90
15564;DHT22;7883;52.554;13.364;2023-09-12T08:51:12;24.80;99.90
15564;DHT22;7883;52.554;13.364;2023-09-12T08:53:39;24.90;99.90
15564;DHT22;7883;52.554;13.364;2023-09-12T08:56:08;25.00;99.90
15564;DHT22;7883;52.554;13.364;2023-09-12T08:58:37;25.10;99.90
15564;DHT22;7883;52.554;13.364;2023-09-12T09:01:06;25.10;99.90
15564;DHT22;7883;52.554;13.364;2023-09-12T09:03:35;25.10;99.90
15564;DHT22;7883;52.554;13.364;2023-09-12T09:06:02;25.10;99.90
15564;DHT22;7883;52.554;13.364;2023-09-12T09:08:33;25.10;99.90
15564;DHT22;7883;52.554;13.364;2023-09-12T09:11:01;25.20;99.90
15564;DHT22;7883;52.554;13.364;2023-09-12T09:13:32;25.20;99.90
15564;DHT22;7883;52.554;13.364;2023-09-12T09:16:14;25.30;99.90
15564;DHT22;7883;52.554;13.364;2023-09-12T09:18:52;25.40;99.90
15564;DHT22;7883;52.554;13.364;2023-09-12T09:21:22;25.50;99.90
15564;DHT22;7883;52.554;13.364;2023-09-12T09:23:51;25.60;99.90
15564;DHT22;7883;52.554;13.364;2023-09-12T09:26:18;25.60;99.90
15564;DHT22;7883;52.554;13.364;2023-09-12T09:29:03;25.50;99.90
15564;DHT22;7883;52.554;13.364;2023-09-12T09:31:31;25.50;99.90
15564;DHT22;7883;52.554;13.364;2023-09-12T09:34:00;25.50;99.90
15564;DHT22;7883;52.554;13.364;2023-09-12T09:36:27;25.50;99.90
15564;DHT22;7883;52.554;13.364;2023-09-12T09:38:55;25.50;99.90
15564;DHT22;7883;52.554;13.364;2023-09-12T09:41:25;25.50;99.90
15564;DHT22;7883;52.554;13.364;2023-09-12T09:43:54;25.50;99.90
15564;DHT22;7883;52.554;13.364;2023-09-12T09:46:21;25.50;99.90
15564;DHT22;7883;52.554;13.364;2023-09-12T09:48:49;25.60;99.90
15564;DHT22;7883;52.554;13.364;2023-09-12T09:51:18;25.60;99.90
15564;DHT22;7883;52.554;13.364;2023-09-12T09:53:45;25.60;99.90
15564;DHT22;7883;52.554;13.364;2023-09-12T09:56:14;25.60;99.90
15564;DHT22;7883;52.554;13.364;2023-09-12T09:58:46;25.60;99.90
15564;DHT22;7883;52.554;13.364;2023-09-12T10:01:18;25.60;99.90
15564;DHT22;7883;52.554;13.364;2023-09-12T10:03:46;25.70;99.90
15564;DHT22;7883;52.554;13.364;2023-09-12T10:06:15;25.70;99.90
15564;DHT22;7883;52.554;13.364;2023-09-12T10:08:46;25.70;99.90
15564;DHT22;7883;52.554;13.364;2023-09-12T10:11:16;25.90;99.90
15564;DHT22;7883;52.554;13.364;2023-09-12T10:13:46;25.90;99.90
15564;DHT22;7883;52.554;13.364;2023-09-12T10:16:18;26.00;99.90
15564;DHT22;7883;52.554;13.364;2023-09-12T10:18:58;26.00;99.90
15564;DHT22;7883;52.554;13.364;2023-09-12T10:21:29;26.10;99.90
15564;DHT22;7883;52.554;13.364;2023-09-12T10:23:59;26.10;99.90
15564;DHT22;7883;52.554;13.364;2023-09-12T10:26:26;26.20;99.90
15564;DHT22;7883;52.554;13.364;2023-09-12T10:28:54;26.20;99.90
15564;DHT22;7883;52.554;13.364;2023-09-12T10:31:24;26.30;99.90
15564;DHT22;7883;52.554;13.364;2023-09-12T10:33:51;26.30;99.90
15564;DHT22;7883;52.554;13.364;2023-09-12T10:36:19;26.30;99.90
15564;DHT22;7883;52.554;13.364;2023-09-12T10:38:47;26.40;99.90
15564;DHT22;7883;52.554;13.364;2023-09-12T10:41:15;26.50;99.90
15564;DHT22;7883;52.554;13.364;2023-09-12T10:43:44;26.60;99.90
15564;DHT22;7883;52.554;13.364;2023-09-12T10:46:15;26.60;99.90
15564;DHT22;7883;52.554;13.364;2023-09-12T10:48:47;26.60;99.90
15564;DHT22;7883;52.554;13.364;2023-09-12T10:51:16;26.70;99.90
15564;DHT22;7883;52.554;13.364;2023-09-12T10:53:47;26.60;99.90
15564;DHT22;7883;52.554;13.364;2023-09-12T10:56:18;26.70;99.90
15564;DHT22;7883;52.554;13.364;2023-09-12T10:59:13;26.70;99.90
15564;DHT22;7883;52.554;13.364;2023-09-12T11:01:42;26.80;99.90
15564;DHT22;7883;52.554;13.364;2023-09-12T11:04:33;26.80;99.90
15564;DHT22;7883;52.554;13.364;2023-09-12T11:07:32;26.80;99.90
15564;DHT22;7883;52.554;13.364;2023-09-12T11:10:23;26.90;99.90
15564;DHT22;7883;52.554;13.364;2023-09-12T11:12:51;27.00;99.90
15564;DHT22;7883;52.554;13.364;2023-09-12T11:15:20;27.10;99.90
15564;DHT22;7883;52.554;13.364;2023-09-12T11:17:48;27.10;99.90
15564;DHT22;7883;52.554;13.364;2023-09-12T11:20:17;27.10;99.90
15564;DHT22;7883;52.554;13.364;2023-09-12T11:22:46;27.20;99.90
15564;DHT22;7883;52.554;13.364;2023-09-12T11:25:20;27.20;99.90
15564;DHT22;7883;52.554;13.364;2023-09-12T11:28:05;27.20;99.90
